createdAt,value
2023-03-18T00:00:11.944Z,61.45
2023-03-18T00:02:42.327Z,61.54
2023-03-18T00:05:13.844Z,61.86
2023-03-18T00:07:42.894Z,61.50
2023-03-18T00:10:12.646Z,62.09
2023-03-18T00:12:42.513Z,62.74
2023-03-18T00:15:12.667Z,62.20
2023-03-18T00:17:41.386Z,62.44
2023-03-18T00:20:13.172Z,62.71
2023-03-18T00:22:43.604Z,62.97
2023-03-18T00:25:13.443Z,63.01
2023-03-18T00:27:41.974Z,63.33
2023-03-18T00:30:12.633Z,62.54
2023-03-18T00:32:41.684Z,62.87
2023-03-18T00:35:10.942Z,63.82
2023-03-18T00:37:40.166Z,63.94
2023-03-18T00:40:17.662Z,63.62
2023-03-18T00:42:51.333Z,63.60
2023-03-18T00:45:21.046Z,63.93
2023-03-18T00:47:50.564Z,64.09
2023-03-18T00:50:19.320Z,64.07
2023-03-18T00:52:48.517Z,64.29
2023-03-18T00:55:18.546Z,63.60
2023-03-18T00:57:47.247Z,63.77
2023-03-18T01:00:17.168Z,63.76
2023-03-18T01:02:45.598Z,63.40
2023-03-18T01:05:14.768Z,64.04
2023-03-18T01:07:43.739Z,63.75
2023-03-18T01:10:12.936Z,63.53
2023-03-18T01:12:44.519Z,63.95
2023-03-18T01:15:14.284Z,63.63
2023-03-18T01:17:42.713Z,63.56
2023-03-18T01:20:13.182Z,63.46
2023-03-18T01:22:42.478Z,63.31
2023-03-18T01:25:13.048Z,63.30
2023-03-18T01:27:41.782Z,63.58
2023-03-18T01:30:14.528Z,63.29
2023-03-18T01:32:45.001Z,63.78
2023-03-18T01:35:13.602Z,63.67
2023-03-18T01:37:47.173Z,63.74
2023-03-18T01:40:16.700Z,63.01
2023-03-18T01:42:49.814Z,63.71
2023-03-18T01:45:22.248Z,63.51
2023-03-18T01:47:54.357Z,63.35
2023-03-18T01:50:26.430Z,63.53
2023-03-18T01:52:57.136Z,63.87
2023-03-18T01:55:28.166Z,64.27
2023-03-18T01:57:57.228Z,63.79
2023-03-18T02:00:27.344Z,63.54
2023-03-18T02:02:56.096Z,63.38
2023-03-18T02:05:28.896Z,64.12
2023-03-18T02:07:57.412Z,64.01
2023-03-18T02:10:27.255Z,63.91
2023-03-18T02:13:00.696Z,64.71
2023-03-18T02:15:37.345Z,65.00
2023-03-18T02:18:11.382Z,64.88
2023-03-18T02:20:47.148Z,64.95
2023-03-18T02:23:39.657Z,64.77
2023-03-18T02:26:12.510Z,65.04
2023-03-18T02:28:43.996Z,65.05
2023-03-18T02:31:14.336Z,64.82
2023-03-18T02:33:44.282Z,65.00
2023-03-18T02:36:15.449Z,65.62
2023-03-18T02:38:45.635Z,65.37
2023-03-18T02:41:23.118Z,65.72
2023-03-18T02:43:53.382Z,65.65
2023-03-18T02:46:28.948Z,65.42
2023-03-18T02:48:59.426Z,66.09
2023-03-18T02:51:29.129Z,65.59
2023-03-18T02:54:00.164Z,65.84
2023-03-18T02:56:30.380Z,65.47
2023-03-18T02:59:00.280Z,65.62
2023-03-18T03:01:28.975Z,66.00
2023-03-18T03:03:57.809Z,65.78
2023-03-18T03:06:26.778Z,65.57
2023-03-18T03:08:55.305Z,65.50
2023-03-18T03:11:25.720Z,65.54
2023-03-18T03:13:57.722Z,66.03
2023-03-18T03:16:28.595Z,65.44
2023-03-18T03:18:59.170Z,65.82
2023-03-18T03:21:28.274Z,65.91
2023-03-18T03:23:56.700Z,65.83
2023-03-18T03:26:25.355Z,65.80
2023-03-18T03:28:53.794Z,66.04
2023-03-18T03:31:22.807Z,66.15
2023-03-18T03:33:52.830Z,66.11
2023-03-18T03:36:21.355Z,66.02
2023-03-18T03:38:50.821Z,65.75
2023-03-18T03:41:21.042Z,66.12
2023-03-18T03:43:50.988Z,65.72
2023-03-18T03:46:19.425Z,65.78
2023-03-18T03:48:48.098Z,66.27
2023-03-18T03:51:19.421Z,65.93
2023-03-18T03:53:47.966Z,65.91
2023-03-18T03:56:17.804Z,66.39
2023-03-18T03:58:47.029Z,66.46
2023-03-18T04:01:15.750Z,66.74
2023-03-18T04:03:46.610Z,66.86
2023-03-18T04:06:15.470Z,66.70
2023-03-18T04:08:53.338Z,66.58
2023-03-18T04:11:22.489Z,66.38
2023-03-18T04:13:51.079Z,66.48
2023-03-18T04:16:20.885Z,66.11
2023-03-18T04:18:49.554Z,66.24
2023-03-18T04:21:22.450Z,66.13
2023-03-18T04:23:56.722Z,66.20
2023-03-18T04:26:25.460Z,66.38
2023-03-18T04:28:55.746Z,65.75
2023-03-18T04:31:25.145Z,66.18
2023-03-18T04:33:53.708Z,65.92
2023-03-18T04:36:22.209Z,66.46
2023-03-18T04:38:51.574Z,65.97
2023-03-18T04:41:21.613Z,66.21
2023-03-18T04:43:52.015Z,65.98
2023-03-18T04:46:21.351Z,66.24
2023-03-18T04:48:50.825Z,66.51
2023-03-18T04:51:19.364Z,66.48
2023-03-18T04:53:48.717Z,66.05
2023-03-18T04:56:18.247Z,65.97
2023-03-18T04:58:53.312Z,66.25
2023-03-18T05:01:28.564Z,65.94
2023-03-18T05:03:57.695Z,66.20
2023-03-18T05:06:33.974Z,66.35
2023-03-18T05:09:09.687Z,66.27
2023-03-18T05:11:38.356Z,66.22
2023-03-18T05:14:16.791Z,66.63
2023-03-18T05:16:48.684Z,66.38
2023-03-18T05:19:18.717Z,66.41
2023-03-18T05:21:58.641Z,66.28
2023-03-18T05:24:27.525Z,66.30
2023-03-18T05:26:57.610Z,66.36
2023-03-18T05:29:34.428Z,66.57
2023-03-18T05:32:25.710Z,66.37
2023-03-18T05:35:01.569Z,66.35
2023-03-18T05:37:31.644Z,66.61
2023-03-18T05:40:10.373Z,66.40
2023-03-18T05:42:54.941Z,66.42
2023-03-18T05:45:32.484Z,66.43
2023-03-18T05:48:01.292Z,65.77
2023-03-18T05:50:34.047Z,66.36
2023-03-18T05:53:05.862Z,65.78
2023-03-18T05:55:38.673Z,65.71
2023-03-18T05:58:08.654Z,65.61
2023-03-18T06:00:41.778Z,64.53
2023-03-18T06:03:11.309Z,65.04
2023-03-18T06:05:40.127Z,63.95
2023-03-18T06:08:09.558Z,63.73
2023-03-18T06:10:39.025Z,63.87
2023-03-18T06:13:07.933Z,63.65
2023-03-18T06:15:36.391Z,63.61
2023-03-18T06:18:06.438Z,62.54
2023-03-18T06:20:35.592Z,62.23
2023-03-18T06:23:04.226Z,61.97
2023-03-18T06:25:33.134Z,61.82
2023-03-18T06:28:01.786Z,61.00
2023-03-18T06:30:32.636Z,61.25
2023-03-18T06:33:01.537Z,60.79
2023-03-18T06:35:32.206Z,60.09
2023-03-18T06:38:01.521Z,59.73
2023-03-18T06:40:30.306Z,59.44
2023-03-18T06:42:59.563Z,59.15
2023-03-18T06:45:38.002Z,58.16
2023-03-18T06:48:08.659Z,57.70
2023-03-18T06:50:41.262Z,56.75
2023-03-18T06:53:15.933Z,56.28
2023-03-18T06:55:45.945Z,55.60
2023-03-18T06:58:15.708Z,54.81
2023-03-18T07:00:57.400Z,52.17
2023-03-18T07:03:29.896Z,50.19
2023-03-18T07:05:59.799Z,48.08
2023-03-18T07:08:29.625Z,46.54
2023-03-18T07:10:58.081Z,45.63
2023-03-18T07:13:29.047Z,44.86
2023-03-18T07:15:59.142Z,44.05
2023-03-18T07:18:28.285Z,43.14
2023-03-18T07:20:56.687Z,42.66
2023-03-18T07:23:27.600Z,42.36
2023-03-18T07:25:58.921Z,41.78
2023-03-18T07:28:27.407Z,42.20
2023-03-18T07:30:56.180Z,41.98
2023-03-18T07:33:25.412Z,41.17
2023-03-18T07:35:53.959Z,40.78
2023-03-18T07:38:22.538Z,39.83
2023-03-18T07:40:52.364Z,40.31
2023-03-18T07:43:20.798Z,40.06
2023-03-18T07:45:49.713Z,39.22
2023-03-18T07:48:18.574Z,38.94
2023-03-18T07:50:46.898Z,38.92
2023-03-18T07:53:16.829Z,38.67
2023-03-18T07:55:46.434Z,38.68
2023-03-18T07:58:16.723Z,38.18
2023-03-18T08:00:45.139Z,38.43
2023-03-18T08:03:14.256Z,38.46
2023-03-18T08:05:42.602Z,38.37
2023-03-18T08:08:11.206Z,37.32
2023-03-18T08:10:39.706Z,37.39
2023-03-18T08:13:07.999Z,37.52
2023-03-18T08:15:37.816Z,36.94
2023-03-18T08:18:09.157Z,36.67
2023-03-18T08:20:38.442Z,37.36
2023-03-18T08:23:06.797Z,36.39
2023-03-18T08:25:35.638Z,36.72
2023-03-18T08:28:07.443Z,36.39
2023-03-18T08:30:39.916Z,36.66
2023-03-18T08:33:08.856Z,36.33
2023-03-18T08:35:37.769Z,36.13
2023-03-18T08:38:06.984Z,35.47
2023-03-18T08:40:36.371Z,35.48
2023-03-18T08:43:04.827Z,35.70
2023-03-18T08:45:33.346Z,36.26
2023-03-18T08:48:03.631Z,36.50
2023-03-18T08:50:32.163Z,36.13
2023-03-18T08:53:01.680Z,35.49
2023-03-18T08:55:32.071Z,35.62
2023-03-18T08:58:00.967Z,35.11
2023-03-18T09:00:29.593Z,35.31
2023-03-18T09:02:58.255Z,35.08
2023-03-18T09:05:28.093Z,34.49
2023-03-18T09:07:56.476Z,34.35
2023-03-18T09:10:24.924Z,33.95
2023-03-18T09:12:53.378Z,34.45
2023-03-18T09:15:22.686Z,34.70
2023-03-18T09:18:07.894Z,34.53
2023-03-18T09:20:39.343Z,34.09
2023-03-18T09:23:08.577Z,33.73
2023-03-18T09:25:37.000Z,33.51
2023-03-18T09:28:05.627Z,34.19
2023-03-18T09:30:34.117Z,34.71
2023-03-18T09:33:03.125Z,34.38
2023-03-18T09:35:31.893Z,34.63
2023-03-18T09:38:02.321Z,34.33
2023-03-18T09:40:32.884Z,34.40
2023-03-18T09:43:07.028Z,34.81
2023-03-18T09:45:37.344Z,34.89
2023-03-18T09:48:16.770Z,35.03
2023-03-18T09:50:51.202Z,34.09
2023-03-18T09:53:23.113Z,33.77
2023-03-18T09:55:55.913Z,33.78
2023-03-18T09:58:29.921Z,33.77
2023-03-18T10:01:00.918Z,34.06
2023-03-18T10:03:33.908Z,33.81
2023-03-18T10:06:05.279Z,33.64
2023-03-18T10:08:42.901Z,33.54
2023-03-18T10:11:16.236Z,33.01
2023-03-18T10:13:46.995Z,32.49
2023-03-18T10:16:22.094Z,32.31
2023-03-18T10:18:50.915Z,31.99
2023-03-18T10:21:27.805Z,32.01
2023-03-18T10:24:02.641Z,31.83
2023-03-18T10:26:33.615Z,31.90
2023-03-18T10:29:06.026Z,31.66
2023-03-18T10:31:39.972Z,31.13
2023-03-18T10:34:13.613Z,30.53
2023-03-18T10:36:49.520Z,31.19
2023-03-18T10:39:20.466Z,31.35
2023-03-18T10:41:51.237Z,31.74
2023-03-18T10:44:22.255Z,30.43
2023-03-18T10:46:56.081Z,29.68
2023-03-18T10:49:27.231Z,29.60
2023-03-18T10:51:56.474Z,29.21
2023-03-18T10:54:28.824Z,28.96
2023-03-18T10:56:57.302Z,28.65
2023-03-18T10:59:27.182Z,28.54
2023-03-18T11:01:59.175Z,28.27
2023-03-18T11:04:31.014Z,28.88
2023-03-18T11:07:01.796Z,28.44
2023-03-18T11:09:36.598Z,27.74
2023-03-18T11:12:06.096Z,27.39
2023-03-18T11:14:34.920Z,25.26
2023-03-18T11:17:04.681Z,23.34
2023-03-18T11:19:34.004Z,22.97
2023-03-18T11:22:04.627Z,23.40
2023-03-18T11:24:39.778Z,23.70
2023-03-18T11:27:23.130Z,23.29
2023-03-18T11:29:55.455Z,23.26
2023-03-18T11:32:28.489Z,23.36
2023-03-18T11:34:58.887Z,23.48
2023-03-18T11:37:34.551Z,24.01
2023-03-18T11:40:14.027Z,24.66
2023-03-18T11:42:43.967Z,24.14
2023-03-18T11:45:25.179Z,24.68
2023-03-18T11:47:53.917Z,25.36
2023-03-18T11:50:25.787Z,24.49
2023-03-18T11:52:59.544Z,25.09
2023-03-18T11:55:34.256Z,26.45
2023-03-18T11:58:17.667Z,26.51
2023-03-18T12:00:52.920Z,26.91
2023-03-18T12:03:31.179Z,27.48
2023-03-18T12:06:11.783Z,27.24
2023-03-18T12:08:51.747Z,28.42
2023-03-18T12:11:25.869Z,28.92
2023-03-18T12:14:01.142Z,28.72
2023-03-18T12:16:40.548Z,28.75
2023-03-18T12:19:25.818Z,28.71
2023-03-18T12:22:04.403Z,28.92
2023-03-18T12:24:44.367Z,28.37
2023-03-18T12:27:17.199Z,27.68
2023-03-18T12:30:01.268Z,27.51
2023-03-18T12:32:32.964Z,28.42
2023-03-18T12:35:09.569Z,28.62
2023-03-18T12:37:45.254Z,28.52
2023-03-18T12:40:25.715Z,28.73
2023-03-18T12:43:02.467Z,27.83
2023-03-18T12:45:35.965Z,28.69
2023-03-18T12:48:06.586Z,28.80
2023-03-18T12:50:38.800Z,28.95
2023-03-18T12:53:10.873Z,28.57
2023-03-18T12:55:40.589Z,28.76
2023-03-18T12:58:14.708Z,29.00
2023-03-18T13:00:48.518Z,29.08
2023-03-18T13:03:25.162Z,29.35
2023-03-18T13:05:54.902Z,29.54
2023-03-18T13:08:36.375Z,29.09
2023-03-18T13:11:06.813Z,28.90
2023-03-18T13:13:38.550Z,29.76
2023-03-18T13:16:09.163Z,30.19
2023-03-18T13:18:43.311Z,29.38
2023-03-18T13:21:15.898Z,29.62
2023-03-18T13:24:01.317Z,29.43
2023-03-18T13:26:35.988Z,29.62
2023-03-18T13:29:14.851Z,30.05
2023-03-18T13:31:52.457Z,29.14
2023-03-18T13:34:31.784Z,29.07
2023-03-18T13:37:10.147Z,28.95
2023-03-18T13:39:59.790Z,28.79
2023-03-18T13:42:30.190Z,28.37
2023-03-18T13:45:01.949Z,28.44
2023-03-18T13:47:35.019Z,28.71
2023-03-18T13:50:05.685Z,28.89
2023-03-18T13:52:42.106Z,28.13
2023-03-18T13:55:20.052Z,28.11
2023-03-18T13:57:49.878Z,28.71
2023-03-18T14:00:40.822Z,27.93
2023-03-18T14:03:19.633Z,27.48
2023-03-18T14:05:48.576Z,27.38
2023-03-18T14:08:28.648Z,27.55
2023-03-18T14:11:11.908Z,27.69
2023-03-18T14:13:40.317Z,28.78
2023-03-18T14:16:11.484Z,29.06
2023-03-18T14:18:41.610Z,28.65
2023-03-18T14:21:25.231Z,28.67
2023-03-18T14:24:07.615Z,28.60
2023-03-18T14:26:38.037Z,28.43
2023-03-18T14:29:18.494Z,28.56
2023-03-18T14:31:58.174Z,29.30
2023-03-18T14:34:33.414Z,29.41
2023-03-18T14:37:19.673Z,29.62
2023-03-18T14:39:53.023Z,28.92
2023-03-18T14:42:28.819Z,29.43
2023-03-18T14:45:02.505Z,29.41
2023-03-18T14:47:39.636Z,29.11
2023-03-18T14:50:15.667Z,29.08
2023-03-18T14:52:46.544Z,29.21
2023-03-18T14:55:18.680Z,28.87
2023-03-18T14:57:47.555Z,29.36
2023-03-18T15:00:16.578Z,29.13
2023-03-18T15:02:46.035Z,29.09
2023-03-18T15:05:17.736Z,29.57
2023-03-18T15:07:51.513Z,29.46
2023-03-18T15:10:22.419Z,29.82
2023-03-18T15:12:58.474Z,30.09
2023-03-18T15:15:27.269Z,29.90
2023-03-18T15:17:55.552Z,29.96
2023-03-18T15:20:25.515Z,30.02
2023-03-18T15:22:54.341Z,30.16
2023-03-18T15:25:24.577Z,30.11
2023-03-18T15:27:55.984Z,30.16
2023-03-18T15:30:27.516Z,30.65
2023-03-18T15:33:07.463Z,30.55
2023-03-18T15:35:39.955Z,30.76
2023-03-18T15:38:15.970Z,31.07
2023-03-18T15:40:49.026Z,31.27
2023-03-18T15:43:20.652Z,31.09
2023-03-18T15:45:54.048Z,31.75
2023-03-18T15:48:27.154Z,31.52
2023-03-18T15:50:58.429Z,32.02
2023-03-18T15:53:28.590Z,31.68
2023-03-18T15:55:58.652Z,32.30
2023-03-18T15:58:28.382Z,32.34
2023-03-18T16:00:58.242Z,32.44
2023-03-18T16:03:27.853Z,32.51
2023-03-18T16:05:58.389Z,32.56
2023-03-18T16:08:26.891Z,32.54
2023-03-18T16:10:58.109Z,32.85
2023-03-18T16:13:29.807Z,32.65
2023-03-18T16:15:58.505Z,32.76
2023-03-18T16:18:27.361Z,32.99
2023-03-18T16:20:57.447Z,33.38
2023-03-18T16:23:25.857Z,33.62
2023-03-18T16:25:56.710Z,34.01
2023-03-18T16:28:26.016Z,34.18
2023-03-18T16:30:56.526Z,34.16
2023-03-18T16:33:25.624Z,34.38
2023-03-18T16:35:55.632Z,34.60
2023-03-18T16:38:26.169Z,34.85
2023-03-18T16:40:55.618Z,35.25
2023-03-18T16:43:24.716Z,35.67
2023-03-18T16:45:53.663Z,36.00
2023-03-18T16:48:23.207Z,36.29
2023-03-18T16:50:52.543Z,36.28
2023-03-18T16:53:22.257Z,36.92
2023-03-18T16:55:53.916Z,37.17
2023-03-18T16:58:24.936Z,37.53
2023-03-18T17:00:53.436Z,37.80
2023-03-18T17:03:21.801Z,37.69
2023-03-18T17:05:52.228Z,38.06
2023-03-18T17:08:21.878Z,38.07
2023-03-18T17:10:53.519Z,38.32
2023-03-18T17:13:23.740Z,38.62
2023-03-18T17:15:52.579Z,38.87
2023-03-18T17:18:22.241Z,39.42
2023-03-18T17:20:51.080Z,39.23
2023-03-18T17:23:21.293Z,39.48
2023-03-18T17:25:53.900Z,39.97
2023-03-18T17:28:34.717Z,40.06
2023-03-18T17:31:03.484Z,40.07
2023-03-18T17:33:32.863Z,40.16
2023-03-18T17:36:01.847Z,40.47
2023-03-18T17:38:31.508Z,40.65
2023-03-18T17:41:01.808Z,40.85
2023-03-18T17:43:31.601Z,41.04
2023-03-18T17:46:01.182Z,41.31
2023-03-18T17:48:31.196Z,41.14
2023-03-18T17:51:00.651Z,41.41
2023-03-18T17:53:31.508Z,41.39
2023-03-18T17:56:01.934Z,41.76
2023-03-18T17:58:32.025Z,41.59
2023-03-18T18:01:03.778Z,41.74
2023-03-18T18:03:33.260Z,41.82
2023-03-18T18:06:01.970Z,42.30
2023-03-18T18:08:31.979Z,42.57
2023-03-18T18:11:05.651Z,42.76
2023-03-18T18:13:34.079Z,42.57
2023-03-18T18:16:02.566Z,42.56
2023-03-18T18:18:31.105Z,42.43
2023-03-18T18:21:00.375Z,42.83
2023-03-18T18:23:30.565Z,42.84
2023-03-18T18:26:00.095Z,42.69
2023-03-18T18:28:34.594Z,42.71
2023-03-18T18:31:03.870Z,43.18
2023-03-18T18:33:32.895Z,42.47
2023-03-18T18:36:01.799Z,43.07
2023-03-18T18:38:31.162Z,43.00
2023-03-18T18:41:00.317Z,43.19
2023-03-18T18:43:29.307Z,43.26
2023-03-18T18:45:59.609Z,43.13
2023-03-18T18:48:30.027Z,43.37
2023-03-18T18:50:58.724Z,44.04
2023-03-18T18:53:28.951Z,43.83
2023-03-18T18:55:58.382Z,43.90
2023-03-18T18:58:28.980Z,43.78
2023-03-18T19:01:00.237Z,44.03
2023-03-18T19:03:30.701Z,44.73
2023-03-18T19:05:59.817Z,44.44
2023-03-18T19:08:29.097Z,45.13
2023-03-18T19:10:57.922Z,45.05
2023-03-18T19:13:27.327Z,45.28
2023-03-18T19:15:57.343Z,45.53
2023-03-18T19:18:28.312Z,45.97
2023-03-18T19:20:56.863Z,45.79
2023-03-18T19:23:26.920Z,46.64
2023-03-18T19:25:56.460Z,46.59
2023-03-18T19:28:47.868Z,46.87
2023-03-18T19:31:20.697Z,47.20
2023-03-18T19:33:51.947Z,47.22
2023-03-18T19:36:25.609Z,47.01
2023-03-18T19:38:54.078Z,47.37
2023-03-18T19:41:22.936Z,47.81
2023-03-18T19:43:51.630Z,47.31
2023-03-18T19:46:21.833Z,47.65
2023-03-18T19:48:51.957Z,47.31
2023-03-18T19:51:20.535Z,47.98
2023-03-18T19:53:49.068Z,48.36
2023-03-18T19:56:25.428Z,47.69
2023-03-18T19:58:55.785Z,48.28
2023-03-18T20:01:24.575Z,48.54
2023-03-18T20:03:57.267Z,48.32
2023-03-18T20:06:26.162Z,48.86
2023-03-18T20:08:54.561Z,48.57
2023-03-18T20:11:23.090Z,48.72
2023-03-18T20:13:51.606Z,48.77
2023-03-18T20:16:22.070Z,48.47
2023-03-18T20:18:50.681Z,48.81
2023-03-18T20:21:23.851Z,48.39
2023-03-18T20:23:53.808Z,49.08
2023-03-18T20:26:22.586Z,49.03
2023-03-18T20:28:55.812Z,49.53
2023-03-18T20:31:24.347Z,49.37
2023-03-18T20:33:52.834Z,49.11
2023-03-18T20:36:22.900Z,49.35
2023-03-18T20:38:51.829Z,49.14
2023-03-18T20:41:21.980Z,49.45
2023-03-18T20:43:50.560Z,48.90
2023-03-18T20:46:19.087Z,49.29
2023-03-18T20:48:49.716Z,49.46
2023-03-18T20:51:21.543Z,49.10
2023-03-18T20:53:51.918Z,49.04
2023-03-18T20:56:23.253Z,49.58
2023-03-18T20:58:51.718Z,49.19
2023-03-18T21:01:20.520Z,49.44
2023-03-18T21:03:49.155Z,49.58
2023-03-18T21:06:19.430Z,50.05
2023-03-18T21:08:47.996Z,49.88
2023-03-18T21:11:21.973Z,50.69
2023-03-18T21:13:50.669Z,51.72
2023-03-18T21:16:20.202Z,52.17
2023-03-18T21:18:50.093Z,52.46
2023-03-18T21:21:21.414Z,52.81
2023-03-18T21:23:49.962Z,52.91
2023-03-18T21:26:19.977Z,53.81
2023-03-18T21:28:48.460Z,53.63
2023-03-18T21:31:22.301Z,54.55
2023-03-18T21:33:51.639Z,54.62
2023-03-18T21:36:20.192Z,55.29
2023-03-18T21:38:49.174Z,55.02
2023-03-18T21:41:21.423Z,56.07
2023-03-18T21:43:50.592Z,56.35
2023-03-18T21:46:19.776Z,56.37
2023-03-18T21:48:48.234Z,56.57
2023-03-18T21:51:37.242Z,57.30
2023-03-18T21:54:07.940Z,57.49
2023-03-18T21:56:37.765Z,57.79
2023-03-18T21:59:06.244Z,57.56
2023-03-18T22:01:34.862Z,57.55
2023-03-18T22:04:03.856Z,58.02
2023-03-18T22:06:32.282Z,58.10
2023-03-18T22:09:00.689Z,58.40
2023-03-18T22:11:29.136Z,57.86
2023-03-18T22:13:59.053Z,58.30
2023-03-18T22:16:27.489Z,58.32
2023-03-18T22:18:56.358Z,58.59
2023-03-18T22:21:27.681Z,58.88
2023-03-18T22:23:58.327Z,59.43
2023-03-18T22:26:27.093Z,59.47
2023-03-18T22:28:55.480Z,59.76
2023-03-18T22:31:26.436Z,59.50
2023-03-18T22:33:55.220Z,60.10
2023-03-18T22:36:23.953Z,60.44
2023-03-18T22:38:52.533Z,60.38
2023-03-18T22:41:22.185Z,60.92
2023-03-18T22:43:51.572Z,61.19
2023-03-18T22:46:19.979Z,60.93
2023-03-18T22:48:49.883Z,61.35
2023-03-18T22:51:24.345Z,61.24
2023-03-18T22:53:53.634Z,61.31
2023-03-18T22:56:22.836Z,61.26
2023-03-18T22:58:51.505Z,61.36
2023-03-18T23:01:21.245Z,61.94
2023-03-18T23:03:51.934Z,61.60
2023-03-18T23:06:24.126Z,61.92
2023-03-18T23:08:52.787Z,62.18
2023-03-18T23:11:21.231Z,61.88
2023-03-18T23:13:52.353Z,62.25
2023-03-18T23:16:21.947Z,62.61
2023-03-18T23:18:52.032Z,62.68
2023-03-18T23:21:22.053Z,63.37
2023-03-18T23:23:50.602Z,62.83
2023-03-18T23:26:19.528Z,63.02
2023-03-18T23:28:49.243Z,63.24
2023-03-18T23:31:18.161Z,63.12
2023-03-18T23:33:47.499Z,63.35
2023-03-18T23:36:17.833Z,63.75
2023-03-18T23:38:46.346Z,63.60
2023-03-18T23:41:14.861Z,63.79
2023-03-18T23:43:43.290Z,63.47
2023-03-18T23:46:12.101Z,63.66
2023-03-18T23:48:40.534Z,63.80
2023-03-18T23:51:09.042Z,64.11
2023-03-18T23:53:38.881Z,63.58
2023-03-18T23:56:07.572Z,64.39
2023-03-18T23:58:35.967Z,64.50
